sensor_id;sensor_type;location;lat;lon;timestamp;P1;durP1;ratioP1;P2;durP2;ratioP2
47481;SDS011;33219;47.410;9.730;2023-09-08T00:02:28;10.25;;;7.30;;
47481;SDS011;33219;47.410;9.730;2023-09-08T00:04:55;8.58;;;6.75;;
47481;SDS011;33219;47.410;9.730;2023-09-08T00:07:23;9.18;;;7.00;;
47481;SDS011;33219;47.410;9.730;2023-09-08T00:09:50;8.88;;;7.22;;
47481;SDS011;33219;47.410;9.730;2023-09-08T00:12:18;10.08;;;7.50;;
47481;SDS011;33219;47.410;9.730;2023-09-08T00:14:46;9.80;;;7.03;;
47481;SDS011;33219;47.410;9.730;2023-09-08T00:17:13;9.75;;;6.90;;
47481;SDS011;33219;47.410;9.730;2023-09-08T00:19:41;9.00;;;7.05;;
47481;SDS011;33219;47.410;9.730;2023-09-08T00:22:08;9.45;;;7.45;;
47481;SDS011;33219;47.410;9.730;2023-09-08T00:24:36;8.50;;;6.67;;
47481;SDS011;33219;47.410;9.730;2023-09-08T00:27:03;9.85;;;6.65;;
47481;SDS011;33219;47.410;9.730;2023-09-08T00:29:31;10.55;;;7.22;;
47481;SDS011;33219;47.410;9.730;2023-09-08T00:31:59;8.93;;;6.85;;
47481;SDS011;33219;47.410;9.730;2023-09-08T00:34:26;10.23;;;7.30;;
47481;SDS011;33219;47.410;9.730;2023-09-08T00:36:54;9.35;;;7.00;;
47481;SDS011;33219;47.410;9.730;2023-09-08T00:39:21;9.23;;;7.40;;
47481;SDS011;33219;47.410;9.730;2023-09-08T00:41:49;8.60;;;7.15;;
47481;SDS011;33219;47.410;9.730;2023-09-08T00:44:17;8.88;;;6.85;;
47481;SDS011;33219;47.410;9.730;2023-09-08T00:46:44;9.18;;;7.03;;
47481;SDS011;33219;47.410;9.730;2023-09-08T00:49:12;8.93;;;7.28;;
47481;SDS011;33219;47.410;9.730;2023-09-08T00:51:39;8.80;;;7.12;;
47481;SDS011;33219;47.410;9.730;2023-09-08T00:54:07;8.43;;;6.75;;
47481;SDS011;33219;47.410;9.730;2023-09-08T00:56:36;10.68;;;7.47;;
47481;SDS011;33219;47.410;9.730;2023-09-08T00:59:05;9.15;;;7.28;;
47481;SDS011;33219;47.410;9.730;2023-09-08T01:01:34;8.95;;;7.05;;
47481;SDS011;33219;47.410;9.730;2023-09-08T01:04:01;9.78;;;7.17;;
47481;SDS011;33219;47.410;9.730;2023-09-08T01:06:29;8.98;;;7.03;;
47481;SDS011;33219;47.410;9.730;2023-09-08T01:09:00;8.68;;;7.10;;
47481;SDS011;33219;47.410;9.730;2023-09-08T01:11:28;9.40;;;6.95;;
47481;SDS011;33219;47.410;9.730;2023-09-08T01:13:56;11.60;;;7.75;;
47481;SDS011;33219;47.410;9.730;2023-09-08T01:16:24;10.08;;;7.58;;
47481;SDS011;33219;47.410;9.730;2023-09-08T01:18:51;11.22;;;7.58;;
47481;SDS011;33219;47.410;9.730;2023-09-08T01:24:27;10.70;;;8.18;;
47481;SDS011;33219;47.410;9.730;2023-09-08T01:27:03;10.85;;;8.13;;
47481;SDS011;33219;47.410;9.730;2023-09-08T01:29:33;11.05;;;8.03;;
47481;SDS011;33219;47.410;9.730;2023-09-08T01:32:02;11.35;;;8.28;;
47481;SDS011;33219;47.410;9.730;2023-09-08T01:34:30;9.70;;;7.90;;
47481;SDS011;33219;47.410;9.730;2023-09-08T01:36:59;11.55;;;7.80;;
47481;SDS011;33219;47.410;9.730;2023-09-08T01:39:28;11.78;;;8.55;;
47481;SDS011;33219;47.410;9.730;2023-09-08T01:41:55;11.70;;;8.63;;
47481;SDS011;33219;47.410;9.730;2023-09-08T01:44:23;10.50;;;8.63;;
47481;SDS011;33219;47.410;9.730;2023-09-08T01:46:51;10.70;;;7.80;;
47481;SDS011;33219;47.410;9.730;2023-09-08T01:49:20;10.32;;;8.30;;
47481;SDS011;33219;47.410;9.730;2023-09-08T01:51:47;10.03;;;7.70;;
47481;SDS011;33219;47.410;9.730;2023-09-08T01:54:16;11.88;;;8.35;;
47481;SDS011;33219;47.410;9.730;2023-09-08T01:56:43;10.45;;;7.97;;
47481;SDS011;33219;47.410;9.730;2023-09-08T01:59:11;10.63;;;8.20;;
47481;SDS011;33219;47.410;9.730;2023-09-08T02:01:38;9.75;;;7.45;;
47481;SDS011;33219;47.410;9.730;2023-09-08T02:04:06;10.15;;;7.95;;
47481;SDS011;33219;47.410;9.730;2023-09-08T02:06:33;12.63;;;8.93;;
47481;SDS011;33219;47.410;9.730;2023-09-08T02:09:01;10.95;;;8.10;;
47481;SDS011;33219;47.410;9.730;2023-09-08T02:11:29;9.85;;;7.95;;
47481;SDS011;33219;47.410;9.730;2023-09-08T02:13:56;11.93;;;8.30;;
47481;SDS011;33219;47.410;9.730;2023-09-08T02:16:24;11.68;;;7.95;;
47481;SDS011;33219;47.410;9.730;2023-09-08T02:18:52;10.53;;;8.00;;
47481;SDS011;33219;47.410;9.730;2023-09-08T02:21:19;13.20;;;9.10;;
47481;SDS011;33219;47.410;9.730;2023-09-08T02:23:48;10.78;;;8.05;;
47481;SDS011;33219;47.410;9.730;2023-09-08T02:26:15;11.65;;;8.28;;
47481;SDS011;33219;47.410;9.730;2023-09-08T02:28:43;9.80;;;7.80;;
47481;SDS011;33219;47.410;9.730;2023-09-08T02:31:10;11.70;;;8.43;;
47481;SDS011;33219;47.410;9.730;2023-09-08T02:33:38;10.40;;;7.47;;
47481;SDS011;33219;47.410;9.730;2023-09-08T02:36:06;11.43;;;8.95;;
47481;SDS011;33219;47.410;9.730;2023-09-08T02:38:33;11.03;;;7.90;;
47481;SDS011;33219;47.410;9.730;2023-09-08T02:41:01;11.97;;;9.15;;
47481;SDS011;33219;47.410;9.730;2023-09-08T02:43:29;13.68;;;10.05;;
47481;SDS011;33219;47.410;9.730;2023-09-08T02:45:56;14.60;;;9.40;;
47481;SDS011;33219;47.410;9.730;2023-09-08T02:48:24;14.13;;;9.78;;
47481;SDS011;33219;47.410;9.730;2023-09-08T02:50:52;12.80;;;9.13;;
47481;SDS011;33219;47.410;9.730;2023-09-08T02:53:19;11.22;;;8.50;;
47481;SDS011;33219;47.410;9.730;2023-09-08T02:55:47;13.80;;;8.55;;
47481;SDS011;33219;47.410;9.730;2023-09-08T02:58:14;11.48;;;8.23;;
47481;SDS011;33219;47.410;9.730;2023-09-08T03:00:42;12.68;;;9.88;;
47481;SDS011;33219;47.410;9.730;2023-09-08T03:03:09;13.43;;;10.00;;
47481;SDS011;33219;47.410;9.730;2023-09-08T03:05:37;12.15;;;9.08;;
47481;SDS011;33219;47.410;9.730;2023-09-08T03:08:05;13.00;;;9.35;;
47481;SDS011;33219;47.410;9.730;2023-09-08T03:10:33;11.73;;;9.15;;
47481;SDS011;33219;47.410;9.730;2023-09-08T03:13:02;11.83;;;8.65;;
47481;SDS011;33219;47.410;9.730;2023-09-08T03:15:30;12.33;;;8.38;;
47481;SDS011;33219;47.410;9.730;2023-09-08T03:17:58;12.82;;;8.83;;
47481;SDS011;33219;47.410;9.730;2023-09-08T03:20:25;11.73;;;8.78;;
47481;SDS011;33219;47.410;9.730;2023-09-08T03:22:54;12.58;;;9.00;;
47481;SDS011;33219;47.410;9.730;2023-09-08T03:25:22;14.03;;;9.95;;
47481;SDS011;33219;47.410;9.730;2023-09-08T03:27:49;12.45;;;9.10;;
47481;SDS011;33219;47.410;9.730;2023-09-08T03:30:17;12.40;;;9.35;;
47481;SDS011;33219;47.410;9.730;2023-09-08T03:32:44;13.65;;;9.08;;
47481;SDS011;33219;47.410;9.730;2023-09-08T03:35:12;12.53;;;9.40;;
47481;SDS011;33219;47.410;9.730;2023-09-08T03:37:39;14.53;;;9.13;;
47481;SDS011;33219;47.410;9.730;2023-09-08T03:40:07;12.10;;;9.10;;
47481;SDS011;33219;47.410;9.730;2023-09-08T03:42:35;10.63;;;8.30;;
47481;SDS011;33219;47.410;9.730;2023-09-08T03:45:02;11.95;;;9.33;;
47481;SDS011;33219;47.410;9.730;2023-09-08T03:47:30;12.40;;;9.33;;
47481;SDS011;33219;47.410;9.730;2023-09-08T03:49:58;13.05;;;9.85;;
47481;SDS011;33219;47.410;9.730;2023-09-08T03:52:25;14.15;;;9.75;;
47481;SDS011;33219;47.410;9.730;2023-09-08T03:54:53;12.85;;;9.18;;
47481;SDS011;33219;47.410;9.730;2023-09-08T03:57:21;13.62;;;9.68;;
47481;SDS011;33219;47.410;9.730;2023-09-08T03:59:48;11.12;;;8.00;;
47481;SDS011;33219;47.410;9.730;2023-09-08T04:02:16;11.48;;;8.45;;
47481;SDS011;33219;47.410;9.730;2023-09-08T04:04:43;11.33;;;8.75;;
47481;SDS011;33219;47.410;9.730;2023-09-08T04:07:11;12.65;;;9.15;;
47481;SDS011;33219;47.410;9.730;2023-09-08T04:09:38;11.88;;;8.73;;
47481;SDS011;33219;47.410;9.730;2023-09-08T04:12:06;13.05;;;8.83;;
47481;SDS011;33219;47.410;9.730;2023-09-08T04:14:35;13.83;;;9.20;;
47481;SDS011;33219;47.410;9.730;2023-09-08T04:17:03;12.93;;;9.15;;
47481;SDS011;33219;47.410;9.730;2023-09-08T04:19:31;13.18;;;9.75;;
47481;SDS011;33219;47.410;9.730;2023-09-08T04:21:59;14.03;;;9.85;;
47481;SDS011;33219;47.410;9.730;2023-09-08T04:24:27;13.95;;;9.90;;
47481;SDS011;33219;47.410;9.730;2023-09-08T04:26:54;15.15;;;10.05;;
47481;SDS011;33219;47.410;9.730;2023-09-08T04:29:22;15.00;;;11.05;;
47481;SDS011;33219;47.410;9.730;2023-09-08T04:31:49;13.18;;;10.32;;
47481;SDS011;33219;47.410;9.730;2023-09-08T04:34:17;15.75;;;10.28;;
47481;SDS011;33219;47.410;9.730;2023-09-08T04:36:44;14.28;;;9.95;;
47481;SDS011;33219;47.410;9.730;2023-09-08T04:39:12;15.32;;;11.08;;
47481;SDS011;33219;47.410;9.730;2023-09-08T04:41:41;14.20;;;10.45;;
47481;SDS011;33219;47.410;9.730;2023-09-08T04:44:09;14.33;;;10.18;;
47481;SDS011;33219;47.410;9.730;2023-09-08T04:46:36;15.38;;;11.60;;
47481;SDS011;33219;47.410;9.730;2023-09-08T04:49:04;14.95;;;10.35;;
47481;SDS011;33219;47.410;9.730;2023-09-08T04:51:32;14.43;;;10.50;;
47481;SDS011;33219;47.410;9.730;2023-09-08T04:53:59;14.00;;;9.90;;
47481;SDS011;33219;47.410;9.730;2023-09-08T04:56:27;16.85;;;10.93;;
47481;SDS011;33219;47.410;9.730;2023-09-08T04:58:54;14.10;;;10.18;;
47481;SDS011;33219;47.410;9.730;2023-09-08T05:01:23;17.75;;;11.15;;
47481;SDS011;33219;47.410;9.730;2023-09-08T05:03:51;15.15;;;10.00;;
47481;SDS011;33219;47.410;9.730;2023-09-08T05:06:18;14.07;;;10.72;;
47481;SDS011;33219;47.410;9.730;2023-09-08T05:08:46;15.10;;;11.00;;
47481;SDS011;33219;47.410;9.730;2023-09-08T05:11:14;16.62;;;10.68;;
47481;SDS011;33219;47.410;9.730;2023-09-08T05:13:42;14.87;;;10.75;;
47481;SDS011;33219;47.410;9.730;2023-09-08T05:16:10;15.03;;;10.05;;
47481;SDS011;33219;47.410;9.730;2023-09-08T05:18:41;13.35;;;10.63;;
47481;SDS011;33219;47.410;9.730;2023-09-08T05:21:09;15.95;;;11.48;;
47481;SDS011;33219;47.410;9.730;2023-09-08T05:23:36;17.30;;;11.45;;
47481;SDS011;33219;47.410;9.730;2023-09-08T05:26:04;15.25;;;11.38;;
47481;SDS011;33219;47.410;9.730;2023-09-08T05:28:31;17.60;;;10.75;;
47481;SDS011;33219;47.410;9.730;2023-09-08T05:30:59;16.93;;;10.03;;
47481;SDS011;33219;47.410;9.730;2023-09-08T05:33:26;14.98;;;10.63;;
47481;SDS011;33219;47.410;9.730;2023-09-08T05:35:54;14.20;;;10.18;;
47481;SDS011;33219;47.410;9.730;2023-09-08T05:38:22;14.45;;;10.45;;
47481;SDS011;33219;47.410;9.730;2023-09-08T05:40:51;13.78;;;9.80;;
47481;SDS011;33219;47.410;9.730;2023-09-08T05:43:19;13.85;;;9.68;;
47481;SDS011;33219;47.410;9.730;2023-09-08T05:45:46;12.93;;;10.08;;
47481;SDS011;33219;47.410;9.730;2023-09-08T05:48:14;16.32;;;10.95;;
47481;SDS011;33219;47.410;9.730;2023-09-08T05:50:42;13.20;;;9.90;;
47481;SDS011;33219;47.410;9.730;2023-09-08T05:53:09;13.70;;;9.50;;
47481;SDS011;33219;47.410;9.730;2023-09-08T05:55:37;12.60;;;9.23;;
47481;SDS011;33219;47.410;9.730;2023-09-08T05:58:04;16.00;;;10.00;;
47481;SDS011;33219;47.410;9.730;2023-09-08T06:00:33;15.43;;;9.10;;
47481;SDS011;33219;47.410;9.730;2023-09-08T06:03:00;12.88;;;9.23;;
47481;SDS011;33219;47.410;9.730;2023-09-08T06:05:28;12.33;;;8.70;;
47481;SDS011;33219;47.410;9.730;2023-09-08T06:07:56;10.78;;;8.33;;
47481;SDS011;33219;47.410;9.730;2023-09-08T06:10:23;11.22;;;8.73;;
47481;SDS011;33219;47.410;9.730;2023-09-08T06:12:51;10.93;;;8.48;;
47481;SDS011;33219;47.410;9.730;2023-09-08T06:15:19;13.22;;;8.25;;
47481;SDS011;33219;47.410;9.730;2023-09-08T06:17:46;11.85;;;8.08;;
47481;SDS011;33219;47.410;9.730;2023-09-08T06:20:14;9.30;;;7.45;;
47481;SDS011;33219;47.410;9.730;2023-09-08T06:22:42;9.68;;;7.65;;
47481;SDS011;33219;47.410;9.730;2023-09-08T06:25:09;9.33;;;7.60;;
47481;SDS011;33219;47.410;9.730;2023-09-08T06:27:37;10.10;;;7.92;;
47481;SDS011;33219;47.410;9.730;2023-09-08T06:30:05;9.83;;;7.30;;
47481;SDS011;33219;47.410;9.730;2023-09-08T06:32:33;8.95;;;7.03;;
47481;SDS011;33219;47.410;9.730;2023-09-08T06:35:02;10.15;;;7.90;;
47481;SDS011;33219;47.410;9.730;2023-09-08T06:37:34;9.05;;;7.45;;
47481;SDS011;33219;47.410;9.730;2023-09-08T06:40:03;8.95;;;6.80;;
47481;SDS011;33219;47.410;9.730;2023-09-08T06:42:31;7.78;;;6.20;;
47481;SDS011;33219;47.410;9.730;2023-09-08T06:44:59;7.25;;;6.50;;
47481;SDS011;33219;47.410;9.730;2023-09-08T06:47:26;9.45;;;7.22;;
47481;SDS011;33219;47.410;9.730;2023-09-08T06:49:55;8.95;;;7.20;;
47481;SDS011;33219;47.410;9.730;2023-09-08T06:52:23;8.00;;;6.33;;
47481;SDS011;33219;47.410;9.730;2023-09-08T06:54:50;8.08;;;6.62;;
47481;SDS011;33219;47.410;9.730;2023-09-08T06:57:18;8.73;;;6.65;;
47481;SDS011;33219;47.410;9.730;2023-09-08T06:59:46;7.67;;;6.37;;
47481;SDS011;33219;47.410;9.730;2023-09-08T07:02:14;12.10;;;6.75;;
47481;SDS011;33219;47.410;9.730;2023-09-08T07:04:42;7.95;;;6.70;;
47481;SDS011;33219;47.410;9.730;2023-09-08T07:07:09;10.50;;;6.50;;
47481;SDS011;33219;47.410;9.730;2023-09-08T07:09:37;9.18;;;6.33;;
47481;SDS011;33219;47.410;9.730;2023-09-08T07:12:05;8.83;;;7.28;;
47481;SDS011;33219;47.410;9.730;2023-09-08T07:14:33;7.50;;;5.95;;
47481;SDS011;33219;47.410;9.730;2023-09-08T07:17:00;7.28;;;5.75;;
47481;SDS011;33219;47.410;9.730;2023-09-08T07:19:34;20.85;;;8.38;;
47481;SDS011;33219;47.410;9.730;2023-09-08T07:21:58;6.53;;;5.70;;
47481;SDS011;33219;47.410;9.730;2023-09-08T07:24:27;7.60;;;6.30;;
47481;SDS011;33219;47.410;9.730;2023-09-08T07:26:55;6.70;;;6.00;;
47481;SDS011;33219;47.410;9.730;2023-09-08T07:29:22;7.55;;;6.20;;
47481;SDS011;33219;47.410;9.730;2023-09-08T07:31:50;7.47;;;6.10;;
47481;SDS011;33219;47.410;9.730;2023-09-08T07:34:18;6.72;;;5.67;;
47481;SDS011;33219;47.410;9.730;2023-09-08T07:36:46;7.55;;;6.00;;
47481;SDS011;33219;47.410;9.730;2023-09-08T07:39:15;8.25;;;6.65;;
47481;SDS011;33219;47.410;9.730;2023-09-08T07:41:43;8.10;;;7.25;;
47481;SDS011;33219;47.410;9.730;2023-09-08T07:44:12;6.92;;;6.22;;
47481;SDS011;33219;47.410;9.730;2023-09-08T07:46:39;7.83;;;6.85;;
47481;SDS011;33219;47.410;9.730;2023-09-08T07:49:07;9.15;;;6.75;;
47481;SDS011;33219;47.410;9.730;2023-09-08T07:51:34;7.62;;;6.35;;
47481;SDS011;33219;47.410;9.730;2023-09-08T07:54:02;7.72;;;6.58;;
47481;SDS011;33219;47.410;9.730;2023-09-08T07:56:32;7.55;;;6.42;;
47481;SDS011;33219;47.410;9.730;2023-09-08T07:59:00;7.90;;;6.45;;
47481;SDS011;33219;47.410;9.730;2023-09-08T08:01:28;7.20;;;6.22;;
47481;SDS011;33219;47.410;9.730;2023-09-08T08:03:56;7.12;;;6.25;;
47481;SDS011;33219;47.410;9.730;2023-09-08T08:06:23;8.05;;;6.35;;
47481;SDS011;33219;47.410;9.730;2023-09-08T08:08:51;7.45;;;6.17;;
47481;SDS011;33219;47.410;9.730;2023-09-08T08:11:18;8.08;;;6.55;;
47481;SDS011;33219;47.410;9.730;2023-09-08T08:13:46;7.30;;;6.60;;
47481;SDS011;33219;47.410;9.730;2023-09-08T08:16:14;6.92;;;6.20;;
47481;SDS011;33219;47.410;9.730;2023-09-08T08:18:41;6.97;;;6.05;;
47481;SDS011;33219;47.410;9.730;2023-09-08T08:21:09;9.68;;;7.22;;
47481;SDS011;33219;47.410;9.730;2023-09-08T08:23:36;7.62;;;6.15;;
47481;SDS011;33219;47.410;9.730;2023-09-08T08:26:04;9.00;;;6.85;;
47481;SDS011;33219;47.410;9.730;2023-09-08T08:28:32;7.97;;;6.85;;
47481;SDS011;33219;47.410;9.730;2023-09-08T08:31:00;8.43;;;5.83;;
47481;SDS011;33219;47.410;9.730;2023-09-08T08:33:29;9.43;;;5.97;;
47481;SDS011;33219;47.410;9.730;2023-09-08T08:35:57;8.30;;;6.30;;
47481;SDS011;33219;47.410;9.730;2023-09-08T08:38:26;7.08;;;6.37;;
47481;SDS011;33219;47.410;9.730;2023-09-08T08:40:53;7.62;;;6.37;;
47481;SDS011;33219;47.410;9.730;2023-09-08T08:43:21;8.88;;;6.30;;
47481;SDS011;33219;47.410;9.730;2023-09-08T08:45:50;7.42;;;6.20;;
47481;SDS011;33219;47.410;9.730;2023-09-08T08:48:19;8.08;;;5.72;;
47481;SDS011;33219;47.410;9.730;2023-09-08T08:50:50;7.90;;;6.28;;
47481;SDS011;33219;47.410;9.730;2023-09-08T08:53:19;8.25;;;6.15;;
47481;SDS011;33219;47.410;9.730;2023-09-08T08:55:48;6.65;;;5.70;;
47481;SDS011;33219;47.410;9.730;2023-09-08T08:58:18;7.47;;;6.62;;
47481;SDS011;33219;47.410;9.730;2023-09-08T09:00:49;7.78;;;6.37;;
47481;SDS011;33219;47.410;9.730;2023-09-08T09:03:16;6.83;;;5.72;;
47481;SDS011;33219;47.410;9.730;2023-09-08T09:05:44;6.45;;;5.47;;
47481;SDS011;33219;47.410;9.730;2023-09-08T09:08:12;8.35;;;5.65;;
47481;SDS011;33219;47.410;9.730;2023-09-08T09:10:41;9.88;;;5.80;;
47481;SDS011;33219;47.410;9.730;2023-09-08T09:13:09;9.78;;;5.90;;
47481;SDS011;33219;47.410;9.730;2023-09-08T09:15:37;7.40;;;5.97;;
47481;SDS011;33219;47.410;9.730;2023-09-08T09:18:05;6.87;;;5.72;;
47481;SDS011;33219;47.410;9.730;2023-09-08T09:20:34;7.22;;;6.25;;
47481;SDS011;33219;47.410;9.730;2023-09-08T09:23:02;8.75;;;6.92;;
47481;SDS011;33219;47.410;9.730;2023-09-08T09:25:30;8.23;;;6.37;;
47481;SDS011;33219;47.410;9.730;2023-09-08T09:27:59;9.08;;;6.42;;
47481;SDS011;33219;47.410;9.730;2023-09-08T09:30:28;7.80;;;6.55;;
47481;SDS011;33219;47.410;9.730;2023-09-08T09:33:13;8.00;;;6.30;;
47481;SDS011;33219;47.410;9.730;2023-09-08T09:35:45;8.40;;;6.55;;
47481;SDS011;33219;47.410;9.730;2023-09-08T09:38:15;9.33;;;6.35;;
47481;SDS011;33219;47.410;9.730;2023-09-08T09:40:45;8.00;;;6.92;;
47481;SDS011;33219;47.410;9.730;2023-09-08T09:43:13;7.22;;;6.28;;
47481;SDS011;33219;47.410;9.730;2023-09-08T09:45:41;7.00;;;6.28;;
47481;SDS011;33219;47.410;9.730;2023-09-08T09:48:09;8.15;;;6.62;;
47481;SDS011;33219;47.410;9.730;2023-09-08T09:50:38;7.65;;;6.80;;
47481;SDS011;33219;47.410;9.730;2023-09-08T09:53:09;7.60;;;6.78;;
47481;SDS011;33219;47.410;9.730;2023-09-08T09:55:38;10.35;;;6.17;;
47481;SDS011;33219;47.410;9.730;2023-09-08T09:58:07;7.22;;;6.25;;
47481;SDS011;33219;47.410;9.730;2023-09-08T10:00:36;7.65;;;6.60;;
47481;SDS011;33219;47.410;9.730;2023-09-08T10:03:06;8.00;;;6.65;;
47481;SDS011;33219;47.410;9.730;2023-09-08T10:05:34;8.00;;;6.45;;
47481;SDS011;33219;47.410;9.730;2023-09-08T10:08:02;6.97;;;6.25;;
47481;SDS011;33219;47.410;9.730;2023-09-08T10:10:30;8.70;;;6.65;;
47481;SDS011;33219;47.410;9.730;2023-09-08T10:13:06;8.13;;;6.87;;
47481;SDS011;33219;47.410;9.730;2023-09-08T10:15:33;7.67;;;6.85;;
47481;SDS011;33219;47.410;9.730;2023-09-08T10:18:03;8.98;;;7.22;;
47481;SDS011;33219;47.410;9.730;2023-09-08T10:20:33;7.87;;;6.55;;
47481;SDS011;33219;47.410;9.730;2023-09-08T10:25:37;9.58;;;7.42;;
47481;SDS011;33219;47.410;9.730;2023-09-08T10:28:06;11.63;;;7.78;;
47481;SDS011;33219;47.410;9.730;2023-09-08T10:30:34;11.38;;;7.00;;
47481;SDS011;33219;47.410;9.730;2023-09-08T10:33:03;10.15;;;7.12;;
47481;SDS011;33219;47.410;9.730;2023-09-08T10:35:32;10.08;;;6.65;;
47481;SDS011;33219;47.410;9.730;2023-09-08T10:43:19;10.53;;;6.83;;
47481;SDS011;33219;47.410;9.730;2023-09-08T10:45:46;8.38;;;6.83;;
47481;SDS011;33219;47.410;9.730;2023-09-08T10:48:14;11.45;;;7.80;;
47481;SDS011;33219;47.410;9.730;2023-09-08T10:50:42;8.00;;;7.20;;
47481;SDS011;33219;47.410;9.730;2023-09-08T10:53:16;8.55;;;7.12;;
47481;SDS011;33219;47.410;9.730;2023-09-08T10:55:45;8.40;;;6.95;;
47481;SDS011;33219;47.410;9.730;2023-09-08T10:58:30;7.97;;;7.00;;
47481;SDS011;33219;47.410;9.730;2023-09-08T11:01:06;8.25;;;6.80;;
47481;SDS011;33219;47.410;9.730;2023-09-08T11:06:07;9.40;;;7.05;;
47481;SDS011;33219;47.410;9.730;2023-09-08T11:08:37;10.50;;;7.42;;
47481;SDS011;33219;47.410;9.730;2023-09-08T11:11:06;8.08;;;6.90;;
47481;SDS011;33219;47.410;9.730;2023-09-08T11:13:34;8.70;;;6.62;;
47481;SDS011;33219;47.410;9.730;2023-09-08T11:16:01;7.58;;;6.53;;
47481;SDS011;33219;47.410;9.730;2023-09-08T11:18:30;8.43;;;6.47;;
47481;SDS011;33219;47.410;9.730;2023-09-08T11:21:00;8.57;;;6.70;;
47481;SDS011;33219;47.410;9.730;2023-09-08T11:23:29;8.50;;;6.80;;
47481;SDS011;33219;47.410;9.730;2023-09-08T11:25:57;8.68;;;6.30;;
47481;SDS011;33219;47.410;9.730;2023-09-08T11:28:26;40.90;;;11.68;;
47481;SDS011;33219;47.410;9.730;2023-09-08T11:30:55;13.75;;;7.42;;
47481;SDS011;33219;47.410;9.730;2023-09-08T11:33:23;8.60;;;6.90;;
47481;SDS011;33219;47.410;9.730;2023-09-08T11:35:51;8.08;;;6.72;;
47481;SDS011;33219;47.410;9.730;2023-09-08T11:38:26;8.80;;;7.22;;
47481;SDS011;33219;47.410;9.730;2023-09-08T11:40:56;8.25;;;7.35;;
47481;SDS011;33219;47.410;9.730;2023-09-08T11:43:25;10.05;;;6.70;;
47481;SDS011;33219;47.410;9.730;2023-09-08T11:45:53;8.73;;;6.55;;
47481;SDS011;33219;47.410;9.730;2023-09-08T11:48:22;8.50;;;7.10;;
47481;SDS011;33219;47.410;9.730;2023-09-08T11:50:54;7.22;;;6.47;;
47481;SDS011;33219;47.410;9.730;2023-09-08T11:53:22;8.95;;;6.62;;
47481;SDS011;33219;47.410;9.730;2023-09-08T11:55:50;8.13;;;6.50;;
47481;SDS011;33219;47.410;9.730;2023-09-08T11:58:18;7.47;;;6.70;;
47481;SDS011;33219;47.410;9.730;2023-09-08T12:00:46;8.28;;;6.28;;
47481;SDS011;33219;47.410;9.730;2023-09-08T12:03:15;7.97;;;6.35;;
47481;SDS011;33219;47.410;9.730;2023-09-08T12:05:44;8.23;;;6.92;;
47481;SDS011;33219;47.410;9.730;2023-09-08T12:08:13;7.83;;;6.63;;
47481;SDS011;33219;47.410;9.730;2023-09-08T12:10:41;8.15;;;7.17;;
47481;SDS011;33219;47.410;9.730;2023-09-08T12:13:09;7.67;;;6.65;;
47481;SDS011;33219;47.410;9.730;2023-09-08T12:15:39;8.85;;;6.65;;
47481;SDS011;33219;47.410;9.730;2023-09-08T12:18:09;8.33;;;7.03;;
47481;SDS011;33219;47.410;9.730;2023-09-08T12:20:39;9.00;;;6.67;;
47481;SDS011;33219;47.410;9.730;2023-09-08T12:23:29;8.00;;;6.65;;
47481;SDS011;33219;47.410;9.730;2023-09-08T12:25:47;7.67;;;6.47;;
47481;SDS011;33219;47.410;9.730;2023-09-08T12:28:17;7.72;;;6.40;;
47481;SDS011;33219;47.410;9.730;2023-09-08T12:30:46;7.05;;;6.30;;
47481;SDS011;33219;47.410;9.730;2023-09-08T12:33:15;8.15;;;6.67;;
47481;SDS011;33219;47.410;9.730;2023-09-08T12:35:45;8.40;;;6.40;;
47481;SDS011;33219;47.410;9.730;2023-09-08T12:40:44;6.95;;;5.55;;
47481;SDS011;33219;47.410;9.730;2023-09-08T12:43:11;6.97;;;5.92;;
47481;SDS011;33219;47.410;9.730;2023-09-08T12:45:39;8.25;;;5.95;;
47481;SDS011;33219;47.410;9.730;2023-09-08T12:48:07;7.85;;;6.78;;
47481;SDS011;33219;47.410;9.730;2023-09-08T12:50:34;7.37;;;6.00;;
47481;SDS011;33219;47.410;9.730;2023-09-08T12:53:02;11.83;;;6.67;;
47481;SDS011;33219;47.410;9.730;2023-09-08T12:55:29;9.45;;;6.10;;
47481;SDS011;33219;47.410;9.730;2023-09-08T12:57:57;7.08;;;5.78;;
47481;SDS011;33219;47.410;9.730;2023-09-08T13:00:25;8.75;;;6.28;;
47481;SDS011;33219;47.410;9.730;2023-09-08T13:02:53;8.98;;;6.40;;
47481;SDS011;33219;47.410;9.730;2023-09-08T13:05:21;8.58;;;5.85;;
47481;SDS011;33219;47.410;9.730;2023-09-08T13:07:49;6.37;;;5.78;;
47481;SDS011;33219;47.410;9.730;2023-09-08T13:10:17;7.10;;;5.50;;
47481;SDS011;33219;47.410;9.730;2023-09-08T13:12:45;7.75;;;6.20;;
47481;SDS011;33219;47.410;9.730;2023-09-08T13:15:14;8.50;;;5.90;;
47481;SDS011;33219;47.410;9.730;2023-09-08T13:17:42;8.68;;;6.10;;
47481;SDS011;33219;47.410;9.730;2023-09-08T13:20:11;9.88;;;6.17;;
47481;SDS011;33219;47.410;9.730;2023-09-08T13:22:42;7.20;;;5.90;;
47481;SDS011;33219;47.410;9.730;2023-09-08T13:25:10;7.47;;;5.75;;
47481;SDS011;33219;47.410;9.730;2023-09-08T13:27:40;6.60;;;5.72;;
47481;SDS011;33219;47.410;9.730;2023-09-08T13:30:09;7.25;;;5.62;;
47481;SDS011;33219;47.410;9.730;2023-09-08T13:32:39;7.08;;;5.45;;
47481;SDS011;33219;47.410;9.730;2023-09-08T13:35:08;7.30;;;5.58;;
47481;SDS011;33219;47.410;9.730;2023-09-08T13:37:37;6.53;;;5.80;;
47481;SDS011;33219;47.410;9.730;2023-09-08T13:40:05;7.87;;;5.50;;
47481;SDS011;33219;47.410;9.730;2023-09-08T13:42:34;6.47;;;5.40;;
47481;SDS011;33219;47.410;9.730;2023-09-08T13:45:03;6.35;;;5.40;;
47481;SDS011;33219;47.410;9.730;2023-09-08T13:47:32;6.78;;;5.55;;
47481;SDS011;33219;47.410;9.730;2023-09-08T13:50:01;6.92;;;5.50;;
47481;SDS011;33219;47.410;9.730;2023-09-08T13:52:29;6.00;;;5.40;;
47481;SDS011;33219;47.410;9.730;2023-09-08T13:54:59;6.90;;;5.33;;
47481;SDS011;33219;47.410;9.730;2023-09-08T13:57:27;7.53;;;5.30;;
47481;SDS011;33219;47.410;9.730;2023-09-08T13:59:55;6.05;;;5.45;;
47481;SDS011;33219;47.410;9.730;2023-09-08T14:02:23;6.60;;;5.22;;
47481;SDS011;33219;47.410;9.730;2023-09-08T14:04:52;7.40;;;6.25;;
47481;SDS011;33219;47.410;9.730;2023-09-08T14:07:20;6.67;;;4.92;;
47481;SDS011;33219;47.410;9.730;2023-09-08T14:09:48;7.33;;;6.00;;
47481;SDS011;33219;47.410;9.730;2023-09-08T14:12:17;5.95;;;5.15;;
47481;SDS011;33219;47.410;9.730;2023-09-08T14:14:48;7.55;;;5.37;;
47481;SDS011;33219;47.410;9.730;2023-09-08T14:17:16;7.53;;;5.45;;
47481;SDS011;33219;47.410;9.730;2023-09-08T14:19:44;6.00;;;4.72;;
47481;SDS011;33219;47.410;9.730;2023-09-08T14:22:12;5.20;;;4.60;;
47481;SDS011;33219;47.410;9.730;2023-09-08T14:24:41;6.37;;;5.10;;
47481;SDS011;33219;47.410;9.730;2023-09-08T14:27:09;6.37;;;5.05;;
47481;SDS011;33219;47.410;9.730;2023-09-08T14:29:38;6.42;;;5.65;;
47481;SDS011;33219;47.410;9.730;2023-09-08T14:32:07;6.65;;;5.33;;
47481;SDS011;33219;47.410;9.730;2023-09-08T14:34:36;6.05;;;5.03;;
47481;SDS011;33219;47.410;9.730;2023-09-08T14:37:04;8.35;;;6.33;;
47481;SDS011;33219;47.410;9.730;2023-09-08T14:39:33;8.13;;;5.75;;
47481;SDS011;33219;47.410;9.730;2023-09-08T14:42:02;7.17;;;5.47;;
47481;SDS011;33219;47.410;9.730;2023-09-08T14:44:31;6.15;;;5.15;;
47481;SDS011;33219;47.410;9.730;2023-09-08T14:46:59;5.55;;;4.60;;
47481;SDS011;33219;47.410;9.730;2023-09-08T14:49:28;5.80;;;4.67;;
47481;SDS011;33219;47.410;9.730;2023-09-08T14:51:56;7.28;;;5.10;;
47481;SDS011;33219;47.410;9.730;2023-09-08T14:54:24;5.90;;;4.97;;
47481;SDS011;33219;47.410;9.730;2023-09-08T14:56:53;6.47;;;5.08;;
47481;SDS011;33219;47.410;9.730;2023-09-08T14:59:21;6.75;;;5.37;;
47481;SDS011;33219;47.410;9.730;2023-09-08T15:01:50;7.90;;;5.37;;
47481;SDS011;33219;47.410;9.730;2023-09-08T15:04:19;8.63;;;5.47;;